sensor_id;sensor_type;location;lat;lon;timestamp;pressure;altitude;pressure_sealevel;temperature;humidity
51123;BME280;37162;41.724;13.346;2024-01-30T00:01:51;98323.59;;;16.97;59.14
51123;BME280;37162;41.724;13.346;2024-01-30T00:04:16;98287.91;;;16.75;58.97
51123;BME280;37162;41.724;13.346;2024-01-30T00:06:43;98331.88;;;17.02;59.01
51123;BME280;37162;41.724;13.346;2024-01-30T00:09:08;98328.97;;;16.97;59.05
51123;BME280;37162;41.724;13.346;2024-01-30T00:11:35;98360.72;;;17.15;59.62
51123;BME280;37162;41.724;13.346;2024-01-30T00:14:00;98310.75;;;16.93;60.13
51123;BME280;37162;41.724;13.346;2024-01-30T00:16:26;98327.75;;;17.00;60.53
51123;BME280;37162;41.724;13.346;2024-01-30T00:18:52;98330.03;;;17.03;60.47
51123;BME280;37162;41.724;13.346;2024-01-30T00:21:19;98309.94;;;16.92;60.32
51123;BME280;37162;41.724;13.346;2024-01-30T00:23:44;98279.66;;;16.77;59.62
51123;BME280;37162;41.724;13.346;2024-01-30T00:26:10;98318.22;;;16.97;58.91
51123;BME280;37162;41.724;13.346;2024-01-30T00:28:37;98317.78;;;16.94;59.05
51123;BME280;37162;41.724;13.346;2024-01-30T00:31:03;98318.44;;;16.96;58.74
51123;BME280;37162;41.724;13.346;2024-01-30T00:33:28;98352.84;;;17.14;58.78
51123;BME280;37162;41.724;13.346;2024-01-30T00:35:53;98332.91;;;17.01;58.61
51123;BME280;37162;41.724;13.346;2024-01-30T00:38:19;98337.47;;;17.01;58.62
51123;BME280;37162;41.724;13.346;2024-01-30T00:40:44;98298.25;;;16.78;58.50
51123;BME280;37162;41.724;13.346;2024-01-30T00:43:10;98349.72;;;17.10;58.42
51123;BME280;37162;41.724;13.346;2024-01-30T00:45:35;98344.50;;;17.02;58.67
51123;BME280;37162;41.724;13.346;2024-01-30T00:48:01;98295.69;;;16.70;58.57
51123;BME280;37162;41.724;13.346;2024-01-30T00:50:26;98345.53;;;17.01;58.60
51123;BME280;37162;41.724;13.346;2024-01-30T00:52:52;98307.13;;;16.79;58.44
51123;BME280;37162;41.724;13.346;2024-01-30T00:55:17;98346.56;;;17.00;58.44
51123;BME280;37162;41.724;13.346;2024-01-30T00:57:43;98339.53;;;16.99;58.46
51123;BME280;37162;41.724;13.346;2024-01-30T01:00:09;98323.56;;;16.91;58.23
51123;BME280;37162;41.724;13.346;2024-01-30T01:02:35;98355.88;;;17.04;58.08
51123;BME280;37162;41.724;13.346;2024-01-30T01:05:01;98348.00;;;17.02;58.57
51123;BME280;37162;41.724;13.346;2024-01-30T01:07:26;98356.72;;;17.04;58.97
51123;BME280;37162;41.724;13.346;2024-01-30T01:09:52;98325.19;;;16.92;58.94
51123;BME280;37162;41.724;13.346;2024-01-30T01:12:17;98348.81;;;17.03;59.18
51123;BME280;37162;41.724;13.346;2024-01-30T01:14:43;98338.84;;;16.90;59.29
51123;BME280;37162;41.724;13.346;2024-01-30T01:17:08;98309.81;;;16.79;59.26
51123;BME280;37162;41.724;13.346;2024-01-30T01:19:34;98333.47;;;16.90;58.74
51123;BME280;37162;41.724;13.346;2024-01-30T01:21:59;98353.38;;;17.02;58.29
51123;BME280;37162;41.724;13.346;2024-01-30T01:24:25;98319.34;;;16.81;58.01
51123;BME280;37162;41.724;13.346;2024-01-30T01:26:50;98351.69;;;16.95;57.86
51123;BME280;37162;41.724;13.346;2024-01-30T01:29:15;98355.44;;;17.00;57.91
51123;BME280;37162;41.724;13.346;2024-01-30T01:31:41;98313.28;;;16.73;57.90
51123;BME280;37162;41.724;13.346;2024-01-30T01:34:10;98329.06;;;16.82;57.79
51123;BME280;37162;41.724;13.346;2024-01-30T01:36:36;98301.88;;;16.71;57.68
51123;BME280;37162;41.724;13.346;2024-01-30T01:39:01;98319.09;;;16.76;57.43
51123;BME280;37162;41.724;13.346;2024-01-30T01:41:33;98297.09;;;16.66;57.36
51123;BME280;37162;41.724;13.346;2024-01-30T01:43:59;98345.06;;;16.97;57.38
51123;BME280;37162;41.724;13.346;2024-01-30T01:46:30;98333.25;;;16.92;57.42
51123;BME280;37162;41.724;13.346;2024-01-30T01:48:58;98328.91;;;16.91;57.50
51123;BME280;37162;41.724;13.346;2024-01-30T01:51:26;98324.97;;;16.86;57.58
51123;BME280;37162;41.724;13.346;2024-01-30T01:53:53;98287.19;;;16.67;57.37
51123;BME280;37162;41.724;13.346;2024-01-30T01:56:19;98265.41;;;16.55;57.68
51123;BME280;37162;41.724;13.346;2024-01-30T01:58:46;98289.47;;;16.70;57.39
51123;BME280;37162;41.724;13.346;2024-01-30T02:01:13;98323.56;;;16.91;57.52
51123;BME280;37162;41.724;13.346;2024-01-30T02:03:40;98266.22;;;16.55;57.58
51123;BME280;37162;41.724;13.346;2024-01-30T02:06:06;98308.81;;;16.80;57.55
51123;BME280;37162;41.724;13.346;2024-01-30T02:08:32;98269.16;;;16.60;57.74
51123;BME280;37162;41.724;13.346;2024-01-30T02:10:58;98302.88;;;16.84;57.84
51123;BME280;37162;41.724;13.346;2024-01-30T02:13:25;98319.22;;;16.90;58.30
51123;BME280;37162;41.724;13.346;2024-01-30T02:15:53;98285.25;;;16.75;58.42
51123;BME280;37162;41.724;13.346;2024-01-30T02:18:19;98325.25;;;16.98;58.57
51123;BME280;37162;41.724;13.346;2024-01-30T02:20:46;98290.84;;;16.80;58.20
51123;BME280;37162;41.724;13.346;2024-01-30T02:23:17;98297.88;;;16.81;57.68
51123;BME280;37162;41.724;13.346;2024-01-30T02:25:44;98312.81;;;16.91;57.40
51123;BME280;37162;41.724;13.346;2024-01-30T02:28:11;98309.47;;;16.89;57.04
51123;BME280;37162;41.724;13.346;2024-01-30T02:30:37;98269.84;;;16.69;57.00
51123;BME280;37162;41.724;13.346;2024-01-30T02:33:03;98309.31;;;16.90;57.02
51123;BME280;37162;41.724;13.346;2024-01-30T02:35:28;98287.91;;;16.75;56.87
51123;BME280;37162;41.724;13.346;2024-01-30T02:37:54;98245.56;;;16.49;56.82
51123;BME280;37162;41.724;13.346;2024-01-30T02:40:19;98301.41;;;16.89;56.75
51123;BME280;37162;41.724;13.346;2024-01-30T02:42:45;98294.97;;;16.83;56.70
51123;BME280;37162;41.724;13.346;2024-01-30T02:45:11;98303.28;;;16.88;56.92
51123;BME280;37162;41.724;13.346;2024-01-30T02:47:36;98281.31;;;16.78;56.86
51123;BME280;37162;41.724;13.346;2024-01-30T02:50:02;98252.81;;;16.55;56.95
51123;BME280;37162;41.724;13.346;2024-01-30T02:52:28;98237.94;;;16.53;56.73
51123;BME280;37162;41.724;13.346;2024-01-30T02:54:53;98284.91;;;16.85;56.87
51123;BME280;37162;41.724;13.346;2024-01-30T02:57:19;98265.16;;;16.71;56.92
51123;BME280;37162;41.724;13.346;2024-01-30T02:59:44;98213.69;;;16.40;56.93
51123;BME280;37162;41.724;13.346;2024-01-30T03:02:09;98256.19;;;16.64;56.98
51123;BME280;37162;41.724;13.346;2024-01-30T03:04:35;98262.28;;;16.73;56.95
51123;BME280;37162;41.724;13.346;2024-01-30T03:07:00;98288.00;;;16.89;57.17
51123;BME280;37162;41.724;13.346;2024-01-30T03:09:26;98275.56;;;16.81;57.30
51123;BME280;37162;41.724;13.346;2024-01-30T03:11:51;98281.78;;;16.81;57.46
51123;BME280;37162;41.724;13.346;2024-01-30T03:14:17;98268.72;;;16.78;57.84
51123;BME280;37162;41.724;13.346;2024-01-30T03:16:42;98241.13;;;16.63;57.83
51123;BME280;37162;41.724;13.346;2024-01-30T03:19:08;98234.47;;;16.59;57.91
51123;BME280;37162;41.724;13.346;2024-01-30T03:21:34;98238.00;;;16.59;57.48
51123;BME280;37162;41.724;13.346;2024-01-30T03:24:00;98272.88;;;16.81;57.40
51123;BME280;37162;41.724;13.346;2024-01-30T03:26:25;98247.53;;;16.62;57.04
51123;BME280;37162;41.724;13.346;2024-01-30T03:28:51;98228.03;;;16.53;56.88
51123;BME280;37162;41.724;13.346;2024-01-30T03:31:16;98286.75;;;16.84;56.89
51123;BME280;37162;41.724;13.346;2024-01-30T03:33:42;98291.09;;;16.85;56.76
51123;BME280;37162;41.724;13.346;2024-01-30T03:36:08;98254.34;;;16.65;56.71
51123;BME280;37162;41.724;13.346;2024-01-30T03:38:34;98259.53;;;16.66;56.61
51123;BME280;37162;41.724;13.346;2024-01-30T03:41:00;98264.91;;;16.66;56.62
51123;BME280;37162;41.724;13.346;2024-01-30T03:43:25;98304.50;;;16.85;56.49
51123;BME280;37162;41.724;13.346;2024-01-30T03:45:51;98300.19;;;16.84;56.45
51123;BME280;37162;41.724;13.346;2024-01-30T03:48:16;98279.59;;;16.70;56.54
51123;BME280;37162;41.724;13.346;2024-01-30T03:50:42;98277.91;;;16.69;56.59
51123;BME280;37162;41.724;13.346;2024-01-30T03:53:07;98275.81;;;16.65;56.60
51123;BME280;37162;41.724;13.346;2024-01-30T03:55:33;98251.38;;;16.53;56.40
51123;BME280;37162;41.724;13.346;2024-01-30T03:57:58;98289.13;;;16.73;56.38
51123;BME280;37162;41.724;13.346;2024-01-30T04:00:24;98270.19;;;16.59;56.29
51123;BME280;37162;41.724;13.346;2024-01-30T04:02:49;98279.31;;;16.65;56.33
51123;BME280;37162;41.724;13.346;2024-01-30T04:05:16;98301.13;;;16.77;56.40
51123;BME280;37162;41.724;13.346;2024-01-30T04:07:42;98290.31;;;16.70;56.41
51123;BME280;37162;41.724;13.346;2024-01-30T04:10:09;98288.31;;;16.72;56.54
51123;BME280;37162;41.724;13.346;2024-01-30T04:12:35;98272.88;;;16.59;56.47
51123;BME280;37162;41.724;13.346;2024-01-30T04:15:01;98262.34;;;16.58;56.50
51123;BME280;37162;41.724;13.346;2024-01-30T04:17:26;98289.13;;;16.73;56.67
51123;BME280;37162;41.724;13.346;2024-01-30T04:19:54;98280.25;;;16.72;56.58
51123;BME280;37162;41.724;13.346;2024-01-30T04:22:19;98285.34;;;16.67;56.61
51123;BME280;37162;41.724;13.346;2024-01-30T04:24:45;98231.06;;;16.44;56.61
51123;BME280;37162;41.724;13.346;2024-01-30T04:27:10;98293.47;;;16.74;56.13
51123;BME280;37162;41.724;13.346;2024-01-30T04:29:35;98200.94;;;16.20;55.70
51123;BME280;37162;41.724;13.346;2024-01-30T04:32:01;98296.34;;;16.72;55.86
51123;BME280;37162;41.724;13.346;2024-01-30T04:34:26;98269.38;;;16.59;55.81
51123;BME280;37162;41.724;13.346;2024-01-30T04:36:52;98289.22;;;16.65;55.83
51123;BME280;37162;41.724;13.346;2024-01-30T04:39:17;98276.00;;;16.63;55.87
51123;BME280;37162;41.724;13.346;2024-01-30T04:41:43;98302.78;;;16.78;55.82
51123;BME280;37162;41.724;13.346;2024-01-30T04:44:08;98288.84;;;16.68;55.81
51123;BME280;37162;41.724;13.346;2024-01-30T04:46:34;98293.84;;;16.71;55.93
51123;BME280;37162;41.724;13.346;2024-01-30T04:48:59;98278.81;;;16.55;55.86
51123;BME280;37162;41.724;13.346;2024-01-30T04:51:25;98303.56;;;16.72;55.81
51123;BME280;37162;41.724;13.346;2024-01-30T04:53:50;98291.91;;;16.65;55.70
51123;BME280;37162;41.724;13.346;2024-01-30T04:56:16;98271.34;;;16.50;55.72
51123;BME280;37162;41.724;13.346;2024-01-30T04:58:41;98303.75;;;16.70;55.63
51123;BME280;37162;41.724;13.346;2024-01-30T05:01:07;98302.63;;;16.65;55.77
51123;BME280;37162;41.724;13.346;2024-01-30T05:03:35;98271.34;;;16.50;55.92
51123;BME280;37162;41.724;13.346;2024-01-30T05:06:01;98320.13;;;16.75;55.63
51123;BME280;37162;41.724;13.346;2024-01-30T05:08:26;98262.56;;;16.35;55.79
51123;BME280;37162;41.724;13.346;2024-01-30T05:10:52;98283.31;;;16.48;55.96
51123;BME280;37162;41.724;13.346;2024-01-30T05:13:17;98312.53;;;16.64;55.97
51123;BME280;37162;41.724;13.346;2024-01-30T05:15:43;98307.38;;;16.63;56.30
51123;BME280;37162;41.724;13.346;2024-01-30T05:18:08;98267.13;;;16.41;56.62
51123;BME280;37162;41.724;13.346;2024-01-30T05:20:33;98328.56;;;16.72;56.95
51123;BME280;37162;41.724;13.346;2024-01-30T05:22:59;98226.47;;;16.16;56.76
51123;BME280;37162;41.724;13.346;2024-01-30T05:25:24;98336.84;;;16.77;56.42
51123;BME280;37162;41.724;13.346;2024-01-30T05:27:50;98254.06;;;16.31;56.13
51123;BME280;37162;41.724;13.346;2024-01-30T05:30:15;98293.47;;;16.52;55.86
51123;BME280;37162;41.724;13.346;2024-01-30T05:32:41;98289.75;;;16.53;55.86
51123;BME280;37162;41.724;13.346;2024-01-30T05:35:06;98315.06;;;16.66;55.72
51123;BME280;37162;41.724;13.346;2024-01-30T05:37:33;98325.88;;;16.72;55.94
51123;BME280;37162;41.724;13.346;2024-01-30T05:39:58;98318.81;;;16.71;55.79
51123;BME280;37162;41.724;13.346;2024-01-30T05:42:24;98310.50;;;16.66;55.84
51123;BME280;37162;41.724;13.346;2024-01-30T05:50:05;98305.91;;;16.60;56.02
51123;BME280;37162;41.724;13.346;2024-01-30T05:52:30;98310.88;;;16.63;55.91
51123;BME280;37162;41.724;13.346;2024-01-30T05:54:56;98304.91;;;16.61;55.91
51123;BME280;37162;41.724;13.346;2024-01-30T05:57:21;98277.28;;;16.46;55.90
51123;BME280;37162;41.724;13.346;2024-01-30T05:59:47;98314.59;;;16.62;55.91
51123;BME280;37162;41.724;13.346;2024-01-30T06:02:13;98299.44;;;16.54;55.99
51123;BME280;37162;41.724;13.346;2024-01-30T06:04:39;98305.47;;;16.56;56.12
51123;BME280;37162;41.724;13.346;2024-01-30T06:07:04;98319.56;;;16.65;56.45
51123;BME280;37162;41.724;13.346;2024-01-30T06:09:31;98302.34;;;16.53;56.07
51123;BME280;37162;41.724;13.346;2024-01-30T06:11:57;98318.31;;;16.61;56.24
51123;BME280;37162;41.724;13.346;2024-01-30T06:14:22;98327.63;;;16.65;56.16
51123;BME280;37162;41.724;13.346;2024-01-30T06:16:48;98328.66;;;16.64;56.15
51123;BME280;37162;41.724;13.346;2024-01-30T06:19:14;98314.53;;;16.55;56.16
51123;BME280;37162;41.724;13.346;2024-01-30T06:21:39;98321.38;;;16.58;56.01
51123;BME280;37162;41.724;13.346;2024-01-30T06:24:05;98318.91;;;16.56;55.95
51123;BME280;37162;41.724;13.346;2024-01-30T06:26:30;98325.50;;;16.60;55.64
51123;BME280;37162;41.724;13.346;2024-01-30T06:28:56;98289.16;;;16.36;56.64
51123;BME280;37162;41.724;13.346;2024-01-30T06:31:21;98330.44;;;16.57;56.56
51123;BME280;37162;41.724;13.346;2024-01-30T06:33:47;98331.44;;;16.56;56.49
51123;BME280;37162;41.724;13.346;2024-01-30T06:36:13;98284.69;;;16.22;56.79
51123;BME280;37162;41.724;13.346;2024-01-30T06:38:38;98331.03;;;16.52;56.88
51123;BME280;37162;41.724;13.346;2024-01-30T06:41:03;98340.28;;;16.50;56.43
51123;BME280;37162;41.724;13.346;2024-01-30T06:43:29;98326.16;;;16.41;56.04
51123;BME280;37162;41.724;13.346;2024-01-30T06:45:54;98342.38;;;16.54;56.08
51123;BME280;37162;41.724;13.346;2024-01-30T06:48:20;98336.31;;;16.46;55.98
51123;BME280;37162;41.724;13.346;2024-01-30T06:50:45;98340.38;;;16.42;55.93
51123;BME280;37162;41.724;13.346;2024-01-30T06:53:11;98360.34;;;16.54;55.94
51123;BME280;37162;41.724;13.346;2024-01-30T06:55:36;98361.16;;;16.54;55.87
51123;BME280;37162;41.724;13.346;2024-01-30T06:58:02;98320.47;;;16.29;55.89
51123;BME280;37162;41.724;13.346;2024-01-30T07:00:27;98360.13;;;16.55;55.96
51123;BME280;37162;41.724;13.346;2024-01-30T07:02:53;98356.63;;;16.55;56.13
51123;BME280;37162;41.724;13.346;2024-01-30T07:05:18;98356.16;;;16.51;56.05
51123;BME280;37162;41.724;13.346;2024-01-30T07:07:44;98361.63;;;16.58;56.04
51123;BME280;37162;41.724;13.346;2024-01-30T07:10:09;98336.31;;;16.46;56.16
51123;BME280;37162;41.724;13.346;2024-01-30T07:12:35;98348.53;;;16.48;56.34
51123;BME280;37162;41.724;13.346;2024-01-30T07:15:00;98352.91;;;16.56;56.44
51123;BME280;37162;41.724;13.346;2024-01-30T07:17:26;98371.59;;;16.64;56.22
51123;BME280;37162;41.724;13.346;2024-01-30T07:19:51;98362.34;;;16.67;56.22
51123;BME280;37162;41.724;13.346;2024-01-30T07:22:17;98360.03;;;16.64;56.05
51123;BME280;37162;41.724;13.346;2024-01-30T07:24:43;98362.69;;;16.64;56.01
51123;BME280;37162;41.724;13.346;2024-01-30T07:27:10;98373.97;;;16.74;56.19
51123;BME280;37162;41.724;13.346;2024-01-30T07:29:36;98312.31;;;16.38;55.83
51123;BME280;37162;41.724;13.346;2024-01-30T07:32:01;98344.28;;;16.60;55.53
51123;BME280;37162;41.724;13.346;2024-01-30T07:34:27;98358.81;;;16.66;55.11
51123;BME280;37162;41.724;13.346;2024-01-30T07:36:52;98334.78;;;16.58;55.16
51123;BME280;37162;41.724;13.346;2024-01-30T07:39:18;98361.22;;;16.76;54.83
51123;BME280;37162;41.724;13.346;2024-01-30T07:41:43;98347.44;;;16.64;54.98
51123;BME280;37162;41.724;13.346;2024-01-30T07:44:09;98380.72;;;16.84;55.06
51123;BME280;37162;41.724;13.346;2024-01-30T07:46:34;98384.63;;;16.89;54.80
51123;BME280;37162;41.724;13.346;2024-01-30T07:49:00;98357.50;;;16.77;54.75
51123;BME280;37162;41.724;13.346;2024-01-30T07:51:25;98358.94;;;16.79;54.82
51123;BME280;37162;41.724;13.346;2024-01-30T07:53:54;98391.94;;;16.95;54.69
51123;BME280;37162;41.724;13.346;2024-01-30T07:56:20;98389.25;;;16.95;54.65
51123;BME280;37162;41.724;13.346;2024-01-30T07:58:45;98362.88;;;16.77;54.52
51123;BME280;37162;41.724;13.346;2024-01-30T08:01:11;98380.56;;;16.93;54.61
51123;BME280;37162;41.724;13.346;2024-01-30T08:03:36;98386.81;;;17.00;54.63
51123;BME280;37162;41.724;13.346;2024-01-30T08:06:02;98390.78;;;17.04;54.47
51123;BME280;37162;41.724;13.346;2024-01-30T08:08:28;98362.78;;;16.92;54.52
51123;BME280;37162;41.724;13.346;2024-01-30T08:10:54;98338.06;;;16.75;54.21
51123;BME280;37162;41.724;13.346;2024-01-30T08:13:22;98392.31;;;17.13;52.57
51123;BME280;37162;41.724;13.346;2024-01-30T08:15:48;98348.09;;;16.88;52.46
51123;BME280;37162;41.724;13.346;2024-01-30T08:18:13;98384.84;;;17.08;52.54
51123;BME280;37162;41.724;13.346;2024-01-30T08:20:39;98381.75;;;17.11;52.62
51123;BME280;37162;41.724;13.346;2024-01-30T08:23:04;98323.88;;;16.81;53.34
51123;BME280;37162;41.724;13.346;2024-01-30T08:25:30;98362.06;;;17.04;53.39
51123;BME280;37162;41.724;13.346;2024-01-30T08:27:55;98389.09;;;17.24;51.77
51123;BME280;37162;41.724;13.346;2024-01-30T08:30:22;98406.94;;;17.32;49.80
51123;BME280;37162;41.724;13.346;2024-01-30T08:32:47;98393.88;;;17.29;50.49
51123;BME280;37162;41.724;13.346;2024-01-30T08:35:13;98369.59;;;17.16;51.09
51123;BME280;37162;41.724;13.346;2024-01-30T08:37:40;98360.00;;;17.06;45.73
51123;BME280;37162;41.724;13.346;2024-01-30T08:40:07;98406.59;;;17.42;48.11
51123;BME280;37162;41.724;13.346;2024-01-30T08:42:33;98411.13;;;17.41;44.11
51123;BME280;37162;41.724;13.346;2024-01-30T08:44:59;98396.19;;;17.32;43.97
51123;BME280;37162;41.724;13.346;2024-01-30T08:47:28;98397.03;;;17.39;44.10
51123;BME280;37162;41.724;13.346;2024-01-30T08:49:53;98410.97;;;17.49;44.32
51123;BME280;37162;41.724;13.346;2024-01-30T08:52:18;98408.94;;;17.51;43.91
51123;BME280;37162;41.724;13.346;2024-01-30T08:54:44;98383.38;;;17.34;42.86
51123;BME280;37162;41.724;13.346;2024-01-30T08:57:09;98394.59;;;17.44;42.96
51123;BME280;37162;41.724;13.346;2024-01-30T08:59:35;98410.19;;;17.55;43.35
51123;BME280;37162;41.724;13.346;2024-01-30T09:02:00;98407.31;;;17.57;42.12
51123;BME280;37162;41.724;13.346;2024-01-30T09:04:26;98410.63;;;17.59;42.72
51123;BME280;37162;41.724;13.346;2024-01-30T09:06:51;98401.56;;;17.60;43.23
51123;BME280;37162;41.724;13.346;2024-01-30T09:09:17;98402.31;;;17.54;42.84
51123;BME280;37162;41.724;13.346;2024-01-30T09:11:43;98397.16;;;17.52;42.51
51123;BME280;37162;41.724;13.346;2024-01-30T09:14:11;98386.78;;;17.49;42.93
51123;BME280;37162;41.724;13.346;2024-01-30T09:16:37;98407.34;;;17.63;43.94
51123;BME280;37162;41.724;13.346;2024-01-30T09:19:02;98398.88;;;17.60;44.02
51123;BME280;37162;41.724;13.346;2024-01-30T09:21:28;98408.38;;;17.62;44.14
51123;BME280;37162;41.724;13.346;2024-01-30T09:24:02;98397.63;;;17.62;43.84
51123;BME280;37162;41.724;13.346;2024-01-30T09:26:31;98407.88;;;17.74;43.35
51123;BME280;37162;41.724;13.346;2024-01-30T09:28:57;98408.72;;;17.81;44.08
51123;BME280;37162;41.724;13.346;2024-01-30T09:31:25;98409.78;;;17.86;44.83
51123;BME280;37162;41.724;13.346;2024-01-30T09:33:50;98385.50;;;17.73;44.76
51123;BME280;37162;41.724;13.346;2024-01-30T09:36:19;98390.13;;;17.79;45.62
51123;BME280;37162;41.724;13.346;2024-01-30T09:38:45;98379.13;;;17.74;44.77
51123;BME280;37162;41.724;13.346;2024-01-30T09:41:10;98408.56;;;17.89;44.05
51123;BME280;37162;41.724;13.346;2024-01-30T09:43:37;98410.25;;;17.97;45.91
51123;BME280;37162;41.724;13.346;2024-01-30T09:46:04;98405.69;;;17.97;45.34
51123;BME280;37162;41.724;13.346;2024-01-30T09:48:31;98401.56;;;17.95;45.85
51123;BME280;37162;41.724;13.346;2024-01-30T09:50:57;98398.88;;;17.95;46.93
51123;BME280;37162;41.724;13.346;2024-01-30T09:53:28;98390.38;;;17.91;48.07
51123;BME280;37162;41.724;13.346;2024-01-30T09:55:54;98414.66;;;18.11;49.59
51123;BME280;37162;41.724;13.346;2024-01-30T09:58:19;98396.66;;;18.05;49.69
51123;BME280;37162;41.724;13.346;2024-01-30T10:00:45;98410.56;;;18.15;49.72
51123;BME280;37162;41.724;13.346;2024-01-30T10:03:10;98399.13;;;18.06;48.27
51123;BME280;37162;41.724;13.346;2024-01-30T10:05:40;98392.50;;;18.02;47.99
51123;BME280;37162;41.724;13.346;2024-01-30T10:08:06;98416.16;;;18.20;48.78
51123;BME280;37162;41.724;13.346;2024-01-30T10:10:35;98413.28;;;18.22;48.85
51123;BME280;37162;41.724;13.346;2024-01-30T10:13:01;98404.41;;;18.21;48.46
51123;BME280;37162;41.724;13.346;2024-01-30T10:15:28;98385.09;;;18.11;51.22
51123;BME280;37162;41.724;13.346;2024-01-30T10:17:53;98398.38;;;18.19;51.50
51123;BME280;37162;41.724;13.346;2024-01-30T10:20:19;98387.59;;;18.12;49.63
51123;BME280;37162;41.724;13.346;2024-01-30T10:22:45;98402.53;;;18.28;48.92
51123;BME280;37162;41.724;13.346;2024-01-30T10:25:11;98402.16;;;18.31;51.00
51123;BME280;37162;41.724;13.346;2024-01-30T10:27:42;98399.03;;;18.34;51.84
51123;BME280;37162;41.724;13.346;2024-01-30T10:30:08;98364.22;;;18.20;52.25
51123;BME280;37162;41.724;13.346;2024-01-30T10:33:02;98387.50;;;18.41;52.27
51123;BME280;37162;41.724;13.346;2024-01-30T10:36:01;98368.81;;;18.32;52.84
51123;BME280;37162;41.724;13.346;2024-01-30T10:38:29;98369.25;;;18.36;49.60
51123;BME280;37162;41.724;13.346;2024-01-30T10:41:01;98382.72;;;18.43;48.57
51123;BME280;37162;41.724;13.346;2024-01-30T10:43:36;98386.28;;;18.50;51.18
51123;BME280;37162;41.724;13.346;2024-01-30T10:46:18;98377.38;;;18.49;52.70
51123;BME280;37162;41.724;13.346;2024-01-30T10:48:50;98377.16;;;18.51;52.59
51123;BME280;37162;41.724;13.346;2024-01-30T10:51:16;98352.91;;;18.44;50.44
51123;BME280;37162;41.724;13.346;2024-01-30T10:53:43;98377.59;;;18.68;52.38
51123;BME280;37162;41.724;13.346;2024-01-30T10:56:12;98358.97;;;18.59;52.32
51123;BME280;37162;41.724;13.346;2024-01-30T10:58:38;98353.56;;;18.66;52.72
51123;BME280;37162;41.724;13.346;2024-01-30T11:01:04;98324.59;;;18.55;52.83
51123;BME280;37162;41.724;13.346;2024-01-30T11:03:30;98345.97;;;18.70;52.84
51123;BME280;37162;41.724;13.346;2024-01-30T11:05:59;98361.91;;;18.84;52.63
51123;BME280;37162;41.724;13.346;2024-01-30T11:08:25;98356.31;;;18.86;52.81
51123;BME280;37162;41.724;13.346;2024-01-30T11:10:57;98350.94;;;18.86;50.75
51123;BME280;37162;41.724;13.346;2024-01-30T11:13:27;98358.81;;;18.87;49.59
51123;BME280;37162;41.724;13.346;2024-01-30T11:15:54;98349.94;;;18.87;49.48
51123;BME280;37162;41.724;13.346;2024-01-30T11:18:23;98345.97;;;18.89;51.16
51123;BME280;37162;41.724;13.346;2024-01-30T11:20:49;98341.22;;;18.92;51.74
51123;BME280;37162;41.724;13.346;2024-01-30T11:23:15;98341.84;;;18.94;52.15
51123;BME280;37162;41.724;13.346;2024-01-30T11:25:41;98338.94;;;18.95;52.40
51123;BME280;37162;41.724;13.346;2024-01-30T11:28:14;98338.53;;;18.98;52.72
51123;BME280;37162;41.724;13.346;2024-01-30T11:30:40;98335.59;;;19.00;52.86
51123;BME280;37162;41.724;13.346;2024-01-30T11:33:08;98338.13;;;19.01;50.68
51123;BME280;37162;41.724;13.346;2024-01-30T11:35:39;98328.78;;;18.97;47.49
51123;BME280;37162;41.724;13.346;2024-01-30T11:38:05;98332.09;;;18.93;47.20
51123;BME280;37162;41.724;13.346;2024-01-30T11:40:33;98329.81;;;18.83;46.07
51123;BME280;37162;41.724;13.346;2024-01-30T11:43:00;98317.81;;;18.79;46.93
51123;BME280;37162;41.724;13.346;2024-01-30T11:45:27;98314.09;;;18.73;46.56
51123;BME280;37162;41.724;13.346;2024-01-30T11:47:53;98310.50;;;18.66;46.15
51123;BME280;37162;41.724;13.346;2024-01-30T11:50:19;98299.31;;;18.49;45.83
51123;BME280;37162;41.724;13.346;2024-01-30T11:52:45;98308.63;;;18.53;46.32
51123;BME280;37162;41.724;13.346;2024-01-30T11:55:11;98316.47;;;18.48;48.35
51123;BME280;37162;41.724;13.346;2024-01-30T11:57:37;98314.84;;;18.47;49.29
51123;BME280;37162;41.724;13.346;2024-01-30T12:00:04;98284.81;;;18.30;49.96
51123;BME280;37162;41.724;13.346;2024-01-30T12:02:39;98309.44;;;18.47;50.62
51123;BME280;37162;41.724;13.346;2024-01-30T12:05:07;98309.66;;;18.46;51.11
51123;BME280;37162;41.724;13.346;2024-01-30T12:07:33;98300.56;;;18.47;51.36
51123;BME280;37162;41.724;13.346;2024-01-30T12:10:02;98293.31;;;18.41;51.67
51123;BME280;37162;41.724;13.346;2024-01-30T12:12:29;98291.22;;;18.36;51.62
51123;BME280;37162;41.724;13.346;2024-01-30T12:14:55;98310.50;;;18.46;52.03
51123;BME280;37162;41.724;13.346;2024-01-30T12:17:28;98293.09;;;18.35;51.95
51123;BME280;37162;41.724;13.346;2024-01-30T12:20:03;98307.38;;;18.43;52.12
51123;BME280;37162;41.724;13.346;2024-01-30T12:22:29;98296.59;;;18.36;52.23
51123;BME280;37162;41.724;13.346;2024-01-30T12:24:54;98302.81;;;18.36;52.29
51123;BME280;37162;41.724;13.346;2024-01-30T12:27:20;98304.03;;;18.34;52.43
51123;BME280;37162;41.724;13.346;2024-01-30T12:29:45;98298.03;;;18.32;52.50
51123;BME280;37162;41.724;13.346;2024-01-30T12:32:15;98294.72;;;18.30;52.69
51123;BME280;37162;41.724;13.346;2024-01-30T12:34:41;98293.28;;;18.27;52.55
51123;BME280;37162;41.724;13.346;2024-01-30T12:37:07;98278.56;;;18.23;52.58
51123;BME280;37162;41.724;13.346;2024-01-30T12:39:35;98280.66;;;18.21;52.52
51123;BME280;37162;41.724;13.346;2024-01-30T12:42:00;98277.75;;;18.16;52.60
51123;BME280;37162;41.724;13.346;2024-01-30T12:44:26;98266.13;;;18.09;52.62
51123;BME280;37162;41.724;13.346;2024-01-30T12:46:51;98270.69;;;18.08;52.65
51123;BME280;37162;41.724;13.346;2024-01-30T12:49:17;98266.72;;;18.04;52.17
51123;BME280;37162;41.724;13.346;2024-01-30T12:51:42;98251.59;;;17.90;50.81